createdAt,value
2023-11-25T00:01:06.371Z,94.30
2023-11-25T00:03:35.828Z,94.10
2023-11-25T00:06:04.545Z,94.30
2023-11-25T00:08:32.538Z,94.40
2023-11-25T00:11:00.400Z,94.40
2023-11-25T00:13:28.278Z,94.30
2023-11-25T00:15:56.493Z,94.30
2023-11-25T00:18:24.890Z,94.00
2023-11-25T00:20:54.034Z,93.80
2023-11-25T00:23:22.656Z,93.80
2023-11-25T00:25:54.443Z,93.90
2023-11-25T00:28:22.540Z,94.00
2023-11-25T00:30:50.762Z,94.20
2023-11-25T00:33:19.523Z,94.00
2023-11-25T00:35:49.222Z,93.80
2023-11-25T00:38:18.943Z,93.90
2023-11-25T00:40:48.190Z,94.10
2023-11-25T00:43:17.169Z,94.00
2023-11-25T00:45:45.159Z,94.00
2023-11-25T00:48:13.355Z,93.90
2023-11-25T00:50:41.411Z,93.90
2023-11-25T00:53:09.380Z,93.80
2023-11-25T00:55:38.639Z,94.00
2023-11-25T00:58:07.459Z,93.80
2023-11-25T01:00:35.326Z,93.90
2023-11-25T01:03:03.266Z,93.80
2023-11-25T01:05:31.090Z,94.10
2023-11-25T01:07:58.887Z,94.00
2023-11-25T01:10:27.467Z,94.10
2023-11-25T01:12:56.655Z,94.10
2023-11-25T01:15:25.451Z,94.20
2023-11-25T01:17:53.901Z,94.20
2023-11-25T01:20:22.733Z,94.20
2023-11-25T01:22:50.918Z,94.20
2023-11-25T01:25:18.886Z,94.30
2023-11-25T01:27:46.759Z,94.30
2023-11-25T01:30:16.251Z,94.40
2023-11-25T01:32:44.082Z,94.40
2023-11-25T01:35:12.755Z,94.40
2023-11-25T01:37:40.708Z,94.40
2023-11-25T01:40:12.275Z,94.40
2023-11-25T01:42:40.236Z,94.50
2023-11-25T01:45:10.481Z,94.40
2023-11-25T01:47:39.796Z,94.50
2023-11-25T01:50:09.113Z,94.40
2023-11-25T01:52:37.540Z,94.50
2023-11-25T01:55:09.533Z,94.50
2023-11-25T01:57:38.217Z,94.60
2023-11-25T02:00:09.052Z,94.50
2023-11-25T02:02:37.424Z,94.60
2023-11-25T02:05:09.367Z,94.50
2023-11-25T02:07:37.864Z,94.40
2023-11-25T02:10:07.188Z,94.50
2023-11-25T02:12:36.209Z,94.50
2023-11-25T02:15:04.984Z,94.50
2023-11-25T02:17:33.125Z,94.30
2023-11-25T02:20:03.533Z,94.40
2023-11-25T02:22:32.754Z,94.40
2023-11-25T02:25:03.511Z,94.50
2023-11-25T02:27:31.532Z,94.50
2023-11-25T02:29:59.349Z,94.50
2023-11-25T02:32:27.225Z,94.40
2023-11-25T02:34:55.841Z,94.30
2023-11-25T02:37:24.001Z,94.40
2023-11-25T02:39:52.513Z,94.30
2023-11-25T02:42:22.295Z,94.20
2023-11-25T02:44:50.452Z,94.00
2023-11-25T02:47:19.367Z,93.80
2023-11-25T02:49:47.224Z,93.90
2023-11-25T02:52:15.380Z,93.80
2023-11-25T02:54:43.189Z,93.80
2023-11-25T02:57:13.053Z,93.60
2023-11-25T02:59:42.227Z,93.50
2023-11-25T03:02:11.726Z,93.40
2023-11-25T03:04:42.812Z,93.50
2023-11-25T03:07:10.839Z,93.60
2023-11-25T03:09:40.255Z,93.60
2023-11-25T03:12:08.082Z,93.60
2023-11-25T03:14:36.038Z,93.70
2023-11-25T03:17:05.369Z,93.60
2023-11-25T03:19:33.561Z,93.80
2023-11-25T03:22:01.553Z,93.70
2023-11-25T03:24:29.348Z,93.70
2023-11-25T03:26:57.549Z,93.60
2023-11-25T03:29:26.059Z,93.80
2023-11-25T03:31:53.900Z,93.70
2023-11-25T03:34:23.151Z,93.70
2023-11-25T03:36:50.986Z,93.70
2023-11-25T03:39:18.803Z,93.70
2023-11-25T03:41:46.631Z,93.70
2023-11-25T03:44:14.469Z,93.60
2023-11-25T03:46:43.222Z,93.70
2023-11-25T03:49:13.361Z,93.80
2023-11-25T03:51:42.550Z,93.90
2023-11-25T03:54:10.890Z,93.70
2023-11-25T03:56:38.941Z,93.70
2023-11-25T03:59:06.996Z,93.80
2023-11-25T04:01:35.113Z,93.90
2023-11-25T04:04:04.782Z,93.90
2023-11-25T04:06:32.694Z,93.90
2023-11-25T04:09:01.862Z,93.90
2023-11-25T04:11:30.477Z,94.00
2023-11-25T04:13:59.245Z,94.00
2023-11-25T04:16:27.230Z,93.90
2023-11-25T04:18:55.845Z,94.10
2023-11-25T04:21:24.285Z,94.10
2023-11-25T04:23:53.930Z,94.10
2023-11-25T04:26:23.119Z,94.30
2023-11-25T04:28:51.892Z,94.20
2023-11-25T04:31:19.765Z,94.10
2023-11-25T04:33:47.617Z,94.30
2023-11-25T04:36:18.616Z,94.30
2023-11-25T04:38:47.602Z,94.10
2023-11-25T04:41:15.468Z,94.10
2023-11-25T04:43:44.900Z,93.90
2023-11-25T04:46:12.686Z,93.80
2023-11-25T04:48:40.513Z,93.50
2023-11-25T04:51:08.385Z,93.30
2023-11-25T04:53:37.143Z,93.30
2023-11-25T04:56:05.605Z,93.30
2023-11-25T04:58:33.420Z,93.50
2023-11-25T05:01:02.589Z,93.50
2023-11-25T05:03:30.492Z,93.50
2023-11-25T05:05:58.310Z,93.40
2023-11-25T05:08:26.135Z,93.40
2023-11-25T05:10:54.127Z,93.20
2023-11-25T05:13:22.616Z,93.10
2023-11-25T05:15:50.731Z,92.90
2023-11-25T05:18:20.333Z,92.80
2023-11-25T05:20:48.165Z,92.60
2023-11-25T05:23:15.989Z,92.80
2023-11-25T05:25:43.802Z,92.80
2023-11-25T05:28:12.088Z,92.60
2023-11-25T05:30:40.481Z,92.50
2023-11-25T05:33:09.370Z,92.70
2023-11-25T05:35:38.683Z,92.60
2023-11-25T05:38:06.467Z,92.60
2023-11-25T05:40:34.300Z,92.70
2023-11-25T05:43:03.271Z,92.70
2023-11-25T05:45:32.040Z,92.80
2023-11-25T05:48:00.528Z,92.80
2023-11-25T05:50:28.362Z,92.90
2023-11-25T05:52:58.238Z,93.10
2023-11-25T05:55:27.832Z,93.10
2023-11-25T05:57:57.598Z,93.20
2023-11-25T06:00:26.686Z,93.30
2023-11-25T06:02:54.710Z,93.20
2023-11-25T06:05:22.593Z,93.50
2023-11-25T06:07:50.769Z,93.60
2023-11-25T06:10:20.664Z,93.40
2023-11-25T06:12:48.931Z,93.50
2023-11-25T06:15:17.067Z,93.50
2023-11-25T06:17:46.248Z,93.40
2023-11-25T06:20:14.472Z,93.40
2023-11-25T06:22:42.920Z,93.20
2023-11-25T06:25:11.127Z,93.10
2023-11-25T06:27:40.294Z,93.00
2023-11-25T06:30:09.407Z,92.80
2023-11-25T06:32:38.571Z,93.00
2023-11-25T06:35:07.732Z,93.10
2023-11-25T06:37:37.216Z,92.90
2023-11-25T06:40:07.156Z,92.90
2023-11-25T06:42:35.012Z,92.70
2023-11-25T06:45:04.709Z,92.60
2023-11-25T06:47:33.526Z,92.60
2023-11-25T06:50:02.136Z,92.30
2023-11-25T06:52:30.205Z,92.30
2023-11-25T06:54:58.153Z,92.30
2023-11-25T06:57:25.928Z,92.40
2023-11-25T06:59:53.702Z,92.50
2023-11-25T07:02:23.185Z,92.50
2023-11-25T07:04:51.573Z,92.40
2023-11-25T07:07:19.401Z,92.30
2023-11-25T07:09:47.324Z,92.10
2023-11-25T07:12:16.265Z,92.00
2023-11-25T07:14:44.730Z,92.10
2023-11-25T07:17:13.700Z,92.30
2023-11-25T07:19:44.047Z,92.50
2023-11-25T07:22:12.402Z,92.30
2023-11-25T07:24:40.724Z,92.50
2023-11-25T07:27:09.025Z,92.60
2023-11-25T07:29:36.938Z,92.70
2023-11-25T07:32:05.423Z,92.90
2023-11-25T07:34:33.966Z,92.90
2023-11-25T07:37:03.219Z,92.90
2023-11-25T07:39:34.173Z,92.80
2023-11-25T07:42:02.811Z,92.90
2023-11-25T07:44:32.115Z,92.90
2023-11-25T07:47:00.148Z,93.00
2023-11-25T07:49:30.598Z,92.90
2023-11-25T07:51:58.518Z,93.00
2023-11-25T07:54:28.106Z,93.00
2023-11-25T07:56:55.978Z,93.00
2023-11-25T07:59:23.826Z,93.10
2023-11-25T08:01:52.851Z,93.20
2023-11-25T08:04:21.019Z,93.50
2023-11-25T08:06:49.022Z,93.20
2023-11-25T08:09:19.101Z,93.20
2023-11-25T08:11:49.369Z,93.30
2023-11-25T08:14:18.452Z,93.40
2023-11-25T08:16:48.395Z,93.40
2023-11-25T08:19:17.567Z,93.50
2023-11-25T08:21:45.789Z,93.30
2023-11-25T08:24:13.602Z,93.30
2023-11-25T08:26:41.546Z,93.30
2023-11-25T08:29:12.680Z,93.30
2023-11-25T08:31:41.128Z,93.50
2023-11-25T08:34:13.424Z,93.60
2023-11-25T08:36:45.951Z,93.60
2023-11-25T08:39:14.369Z,93.50
2023-11-25T08:41:44.487Z,93.70
2023-11-25T08:44:14.620Z,93.70
2023-11-25T08:46:44.024Z,93.70
2023-11-25T08:49:14.205Z,93.60
2023-11-25T08:51:46.884Z,93.60
2023-11-25T08:54:15.369Z,93.50
2023-11-25T08:56:45.201Z,93.50
2023-11-25T08:59:18.913Z,93.60
2023-11-25T09:01:48.502Z,93.50
2023-11-25T09:04:21.139Z,93.20
2023-11-25T09:06:49.866Z,93.30
2023-11-25T09:09:20.652Z,93.40
2023-11-25T09:11:49.909Z,93.40
2023-11-25T09:14:21.013Z,93.30
2023-11-25T09:16:51.770Z,93.40
2023-11-25T09:19:19.794Z,93.40
2023-11-25T09:21:47.672Z,93.50
2023-11-25T09:24:16.122Z,93.60
2023-11-25T09:26:43.937Z,93.60
2023-11-25T09:29:11.963Z,93.60
2023-11-25T09:31:41.145Z,93.50
2023-11-25T09:34:09.568Z,93.60
2023-11-25T09:36:37.542Z,93.80
2023-11-25T09:39:10.997Z,94.00
2023-11-25T09:41:39.851Z,94.10
2023-11-25T09:44:09.821Z,94.00
2023-11-25T09:46:38.056Z,94.00
2023-11-25T09:49:07.520Z,94.00
2023-11-25T09:51:35.478Z,94.00
2023-11-25T09:54:09.122Z,93.90
2023-11-25T09:56:38.186Z,93.50
2023-11-25T09:59:08.296Z,93.40
2023-11-25T10:01:37.784Z,93.10
2023-11-25T10:04:09.054Z,92.80
2023-11-25T10:06:37.260Z,92.30
2023-11-25T10:09:06.860Z,91.50
2023-11-25T10:11:35.445Z,91.20
2023-11-25T10:14:04.437Z,90.80
2023-11-25T10:16:32.973Z,90.60
2023-11-25T10:19:00.966Z,90.00
2023-11-25T10:21:30.619Z,90.50
2023-11-25T10:24:08.667Z,90.90
2023-11-25T10:26:38.812Z,91.20
2023-11-25T10:29:07.896Z,91.00
2023-11-25T10:31:36.127Z,91.30
2023-11-25T10:34:04.665Z,91.10
2023-11-25T10:36:34.010Z,91.60
2023-11-25T10:39:05.004Z,91.80
2023-11-25T10:41:33.171Z,92.30
2023-11-25T10:44:03.468Z,92.10
2023-11-25T10:46:41.768Z,91.50
2023-11-25T10:49:10.842Z,91.50
2023-11-25T10:51:41.165Z,90.70
2023-11-25T10:54:10.074Z,90.50
2023-11-25T10:56:39.629Z,90.30
2023-11-25T10:59:08.120Z,90.50
2023-11-25T11:01:40.588Z,90.70
2023-11-25T11:04:15.597Z,90.90
2023-11-25T11:06:50.064Z,91.00
2023-11-25T11:09:21.451Z,91.50
2023-11-25T11:11:54.805Z,91.50
2023-11-25T11:14:24.174Z,91.80
2023-11-25T11:16:56.513Z,92.00
2023-11-25T11:19:31.054Z,91.90
2023-11-25T11:22:06.638Z,91.50
2023-11-25T11:24:43.770Z,90.90
2023-11-25T11:27:21.129Z,90.80
2023-11-25T11:29:54.392Z,91.10
2023-11-25T11:32:26.649Z,91.50
2023-11-25T11:34:54.953Z,91.10
2023-11-25T11:37:24.199Z,91.00
2023-11-25T11:40:02.652Z,91.20
2023-11-25T11:42:34.275Z,91.00
2023-11-25T11:45:26.164Z,91.00
2023-11-25T11:47:56.009Z,89.80
2023-11-25T11:50:28.071Z,89.20
2023-11-25T11:53:16.696Z,89.30
2023-11-25T11:55:51.435Z,89.40
2023-11-25T11:58:20.932Z,88.00
2023-11-25T12:00:49.440Z,87.70
2023-11-25T12:03:18.340Z,87.00
2023-11-25T12:05:46.626Z,86.10
2023-11-25T12:08:16.007Z,86.50
2023-11-25T12:10:43.946Z,89.30
2023-11-25T12:13:13.348Z,87.00
2023-11-25T12:15:41.556Z,87.00
2023-11-25T12:18:15.879Z,87.90
2023-11-25T12:20:44.192Z,88.80
2023-11-25T12:23:13.027Z,89.80
2023-11-25T12:25:45.222Z,90.60
2023-11-25T12:28:15.154Z,91.40
2023-11-25T12:30:43.670Z,92.20
2023-11-25T12:33:12.569Z,92.60
2023-11-25T12:35:42.532Z,92.30
2023-11-25T12:38:15.573Z,92.70
2023-11-25T12:40:47.426Z,92.80
2023-11-25T12:43:15.785Z,93.00
2023-11-25T12:45:46.345Z,93.20
2023-11-25T12:48:20.275Z,93.00
2023-11-25T12:51:03.126Z,92.30
2023-11-25T12:53:31.010Z,92.30
2023-11-25T12:56:01.365Z,92.30
2023-11-25T12:58:29.790Z,92.10
2023-11-25T13:00:59.057Z,92.20
2023-11-25T13:03:29.152Z,92.20
2023-11-25T13:06:01.337Z,91.30
2023-11-25T13:08:31.268Z,91.70
2023-11-25T13:11:01.777Z,91.40
2023-11-25T13:13:30.834Z,91.50
2023-11-25T13:15:59.722Z,91.90
2023-11-25T13:18:28.813Z,92.10
2023-11-25T13:20:58.026Z,92.20
2023-11-25T13:23:25.985Z,92.30
2023-11-25T13:25:54.278Z,92.40
2023-11-25T13:28:23.703Z,92.70
2023-11-25T13:30:52.115Z,93.00
2023-11-25T13:33:20.282Z,93.20
2023-11-25T13:35:48.741Z,93.40
2023-11-25T13:38:17.569Z,93.30
2023-11-25T13:40:45.664Z,93.40
2023-11-25T13:43:14.939Z,93.00
2023-11-25T13:45:44.136Z,92.60
2023-11-25T13:48:15.555Z,92.20
2023-11-25T13:50:43.804Z,92.40
2023-11-25T13:53:14.602Z,92.60
2023-11-25T13:55:45.984Z,92.60
2023-11-25T13:58:15.112Z,93.00
2023-11-25T14:00:45.362Z,93.00
2023-11-25T14:03:14.636Z,93.10
2023-11-25T14:05:44.417Z,93.20
2023-11-25T14:08:13.490Z,93.30
2023-11-25T14:10:44.485Z,93.20
2023-11-25T14:13:14.621Z,92.90
2023-11-25T14:15:43.850Z,92.10
2023-11-25T14:18:12.250Z,92.10
2023-11-25T14:20:40.299Z,92.10
2023-11-25T14:23:08.244Z,92.10
2023-11-25T14:25:36.174Z,92.00
2023-11-25T14:28:04.304Z,92.10
2023-11-25T14:30:34.899Z,92.30
2023-11-25T14:33:06.777Z,92.40
2023-11-25T14:35:34.936Z,92.30
2023-11-25T14:38:05.024Z,92.30
2023-11-25T14:40:36.825Z,92.80
2023-11-25T14:43:06.641Z,92.70
2023-11-25T14:45:35.521Z,92.90
2023-11-25T14:48:05.613Z,93.00
2023-11-25T14:50:38.895Z,92.90
2023-11-25T14:53:06.783Z,93.00
2023-11-25T14:55:35.808Z,93.10
2023-11-25T14:58:03.969Z,93.00
2023-11-25T15:00:32.355Z,93.00
2023-11-25T15:03:04.347Z,92.90
2023-11-25T15:05:32.247Z,93.00
2023-11-25T15:08:00.241Z,93.10
2023-11-25T15:10:28.164Z,93.30
2023-11-25T15:12:57.252Z,93.30
2023-11-25T15:15:25.822Z,93.50
2023-11-25T15:17:53.952Z,93.60
2023-11-25T15:20:24.321Z,93.80
2023-11-25T15:22:53.091Z,93.70
2023-11-25T15:25:22.074Z,93.60
2023-11-25T15:27:50.001Z,93.80
2023-11-25T15:30:19.109Z,94.10
2023-11-25T15:32:46.941Z,94.00
2023-11-25T15:35:14.872Z,94.00
2023-11-25T15:37:44.536Z,94.00
2023-11-25T15:40:14.019Z,94.00
2023-11-25T15:42:42.206Z,94.00
2023-11-25T15:45:10.830Z,94.00
2023-11-25T15:47:39.174Z,94.00
2023-11-25T15:50:08.181Z,93.90
2023-11-25T15:52:36.249Z,93.90
2023-11-25T15:55:06.079Z,93.90
2023-11-25T15:57:33.911Z,93.90
2023-11-25T16:00:01.866Z,94.00
2023-11-25T16:02:29.796Z,94.00
2023-11-25T16:04:57.748Z,94.20
2023-11-25T16:07:25.716Z,94.30
2023-11-25T16:09:53.539Z,94.40
2023-11-25T16:12:22.749Z,94.40
2023-11-25T16:14:50.565Z,94.40
2023-11-25T16:17:18.934Z,94.40
2023-11-25T16:19:47.102Z,94.40
2023-11-25T16:22:15.097Z,94.50
2023-11-25T16:24:43.206Z,94.60
2023-11-25T16:27:11.106Z,94.60
2023-11-25T16:29:40.369Z,94.50
2023-11-25T16:32:08.544Z,94.40
2023-11-25T16:34:36.447Z,94.30
2023-11-25T16:37:04.371Z,94.20
2023-11-25T16:39:33.802Z,94.40
2023-11-25T16:42:02.035Z,94.30
2023-11-25T16:44:29.967Z,94.40
2023-11-25T16:46:59.155Z,94.60
2023-11-25T16:49:37.509Z,94.60
2023-11-25T16:52:10.235Z,94.60
2023-11-25T16:54:40.079Z,94.50
2023-11-25T16:57:08.610Z,94.70
2023-11-25T16:59:36.789Z,94.70
2023-11-25T17:02:06.542Z,94.70
2023-11-25T17:04:34.945Z,94.70
2023-11-25T17:07:06.286Z,94.70
2023-11-25T17:09:34.658Z,94.70
2023-11-25T17:12:02.507Z,94.70
2023-11-25T17:14:30.974Z,94.50
2023-11-25T17:16:58.890Z,94.60
2023-11-25T17:19:28.088Z,94.50
2023-11-25T17:21:55.923Z,94.50
2023-11-25T17:24:23.724Z,94.50
2023-11-25T17:26:53.285Z,94.40
2023-11-25T17:29:21.121Z,94.30
2023-11-25T17:31:49.258Z,94.40
2023-11-25T17:34:17.148Z,94.40
2023-11-25T17:36:47.633Z,94.50
2023-11-25T17:39:15.747Z,94.60
2023-11-25T17:41:44.927Z,94.70
2023-11-25T17:44:13.813Z,94.80
2023-11-25T17:46:43.468Z,94.70
2023-11-25T17:49:11.411Z,94.90
2023-11-25T17:51:39.259Z,94.80
2023-11-25T17:54:09.377Z,94.80
2023-11-25T17:56:37.587Z,94.90
2023-11-25T17:59:05.525Z,94.90
2023-11-25T18:01:33.604Z,95.00
2023-11-25T18:04:02.252Z,95.10
2023-11-25T18:06:30.089Z,95.10
2023-11-25T18:08:58.029Z,95.20
2023-11-25T18:11:27.275Z,95.30
2023-11-25T18:13:55.225Z,95.30
2023-11-25T18:16:23.111Z,95.30
2023-11-25T18:18:52.324Z,95.40
2023-11-25T18:21:20.175Z,95.40
2023-11-25T18:23:47.991Z,95.40
2023-11-25T18:26:16.441Z,95.50
2023-11-25T18:28:45.859Z,95.60
2023-11-25T18:31:17.889Z,95.60
2023-11-25T18:33:46.170Z,95.70
2023-11-25T18:36:14.641Z,95.70
2023-11-25T18:38:42.479Z,95.70
2023-11-25T18:41:11.322Z,95.50
2023-11-25T18:43:39.236Z,95.40
2023-11-25T18:46:11.779Z,95.30
2023-11-25T18:48:40.159Z,95.30
2023-11-25T18:51:09.491Z,94.80
2023-11-25T18:53:38.008Z,94.30
2023-11-25T18:56:06.544Z,94.20
2023-11-25T18:58:34.572Z,93.90
2023-11-25T19:01:05.995Z,93.90
2023-11-25T19:03:35.208Z,93.70
2023-11-25T19:06:03.125Z,93.90
2023-11-25T19:08:30.946Z,93.90
2023-11-25T19:10:59.527Z,94.00
2023-11-25T19:13:27.359Z,94.10
2023-11-25T19:15:55.184Z,94.20
2023-11-25T19:18:23.085Z,93.70
2023-11-25T19:20:52.249Z,93.70
2023-11-25T19:23:21.073Z,93.90
2023-11-25T19:25:48.939Z,93.90
2023-11-25T19:28:16.852Z,93.90
2023-11-25T19:30:44.903Z,93.80
2023-11-25T19:33:12.849Z,93.80
2023-11-25T19:35:40.778Z,93.80
2023-11-25T19:38:11.471Z,93.70
2023-11-25T19:40:40.179Z,93.70
2023-11-25T19:43:09.417Z,93.70
2023-11-25T19:45:37.228Z,93.80
2023-11-25T19:48:06.201Z,93.90
2023-11-25T19:50:34.359Z,94.00
2023-11-25T19:53:02.229Z,94.10
2023-11-25T19:55:31.665Z,94.20
2023-11-25T19:57:59.528Z,94.20
2023-11-25T20:00:27.573Z,94.20
2023-11-25T20:02:55.602Z,94.50
2023-11-25T20:05:23.867Z,94.60
2023-11-25T20:07:51.880Z,94.60
2023-11-25T20:10:20.967Z,94.60
2023-11-25T20:12:50.406Z,94.70
2023-11-25T20:15:19.444Z,94.50
2023-11-25T20:18:09.331Z,94.50
2023-11-25T20:20:37.145Z,94.70
2023-11-25T20:23:05.007Z,94.70
2023-11-25T20:25:32.960Z,94.80
2023-11-25T20:28:02.140Z,94.80
2023-11-25T20:30:30.238Z,94.80
2023-11-25T20:32:58.181Z,94.70
2023-11-25T20:35:26.083Z,94.60
2023-11-25T20:37:54.180Z,94.50
2023-11-25T20:40:24.058Z,94.50
2023-11-25T20:42:51.965Z,94.80
2023-11-25T20:45:21.391Z,94.50
2023-11-25T20:47:49.703Z,94.60
2023-11-25T20:50:18.649Z,94.50
2023-11-25T20:52:47.727Z,94.60
2023-11-25T20:55:15.767Z,94.60
2023-11-25T20:57:43.817Z,94.70
2023-11-25T21:00:13.216Z,94.50
2023-11-25T21:02:42.727Z,94.30
2023-11-25T21:05:11.097Z,94.50
2023-11-25T21:07:39.235Z,94.30
2023-11-25T21:10:08.727Z,94.10
2023-11-25T21:12:36.689Z,93.90
2023-11-25T21:15:06.908Z,93.90
2023-11-25T21:17:35.412Z,94.00
2023-11-25T21:20:05.806Z,94.00
2023-11-25T21:22:33.654Z,93.90
2023-11-25T21:25:01.732Z,93.90
2023-11-25T21:27:30.694Z,94.00
2023-11-25T21:29:58.824Z,94.10
2023-11-25T21:32:26.717Z,94.10
2023-11-25T21:34:54.919Z,94.10
2023-11-25T21:37:24.329Z,94.30
2023-11-25T21:39:52.169Z,94.10
2023-11-25T21:42:20.037Z,94.20
2023-11-25T21:44:47.946Z,94.20
2023-11-25T21:47:15.934Z,94.20
2023-11-25T21:49:44.030Z,94.20
2023-11-25T21:52:11.962Z,94.10
2023-11-25T21:54:41.280Z,94.00
2023-11-25T21:57:09.449Z,94.30
2023-11-25T21:59:37.442Z,94.10
2023-11-25T22:02:06.016Z,94.30
2023-11-25T22:04:34.203Z,94.30
2023-11-25T22:07:04.661Z,94.20
2023-11-25T22:09:33.056Z,94.20
2023-11-25T22:12:05.361Z,94.20
2023-11-25T22:14:33.341Z,94.30
2023-11-25T22:17:01.498Z,94.10
2023-11-25T22:19:29.556Z,94.20
2023-11-25T22:21:57.607Z,94.10
2023-11-25T22:24:26.654Z,94.20
2023-11-25T22:27:00.296Z,94.20
2023-11-25T22:29:29.716Z,94.20
2023-11-25T22:31:57.495Z,94.30
2023-11-25T22:34:25.369Z,94.30
2023-11-25T22:36:53.269Z,94.20
2023-11-25T22:39:22.026Z,94.30
2023-11-25T22:41:50.197Z,94.20
2023-11-25T22:44:18.963Z,94.10
2023-11-25T22:46:48.565Z,94.20
2023-11-25T22:49:16.601Z,94.10
2023-11-25T22:51:44.657Z,94.20
2023-11-25T22:54:12.756Z,94.40
2023-11-25T22:56:40.794Z,94.30
2023-11-25T22:59:08.671Z,94.40
2023-11-25T23:01:37.202Z,94.30
2023-11-25T23:04:08.048Z,94.40
2023-11-25T23:06:38.754Z,94.50
2023-11-25T23:09:07.359Z,94.60
2023-11-25T23:11:35.758Z,94.60
2023-11-25T23:14:05.154Z,94.50
2023-11-25T23:16:33.033Z,94.70
2023-11-25T23:19:01.434Z,94.80
2023-11-25T23:21:30.666Z,94.90
2023-11-25T23:23:58.999Z,94.80
2023-11-25T23:26:26.912Z,95.00
2023-11-25T23:28:54.861Z,95.00
2023-11-25T23:31:22.821Z,95.10
2023-11-25T23:33:50.702Z,94.90
2023-11-25T23:36:18.546Z,95.10
2023-11-25T23:38:47.783Z,95.00
2023-11-25T23:41:15.672Z,94.90
2023-11-25T23:43:43.589Z,95.00
2023-11-25T23:46:12.898Z,95.10
2023-11-25T23:48:40.741Z,95.00
2023-11-25T23:51:09.129Z,95.00
2023-11-25T23:53:37.047Z,95.10
2023-11-25T23:56:07.055Z,94.90
2023-11-25T23:58:35.408Z,94.90
